sensor_id;sensor_type;location;lat;lon;timestamp;pressure;altitude;pressure_sealevel;temperature;humidity
43147;BME280;28752;48.266;7.402;2023-02-28T00:00:23;100074.16;;;-0.62;56.60
43147;BME280;28752;48.266;7.402;2023-02-28T00:02:48;100085.69;;;-0.69;56.52
43147;BME280;28752;48.266;7.402;2023-02-28T00:05:16;100089.94;;;-0.66;56.27
43147;BME280;28752;48.266;7.402;2023-02-28T00:07:42;100092.56;;;-0.66;56.25
43147;BME280;28752;48.266;7.402;2023-02-28T00:10:11;100071.63;;;-0.63;56.09
43147;BME280;28752;48.266;7.402;2023-02-28T00:12:37;100094.84;;;-0.59;56.14
43147;BME280;28752;48.266;7.402;2023-02-28T00:15:08;100089.78;;;-0.62;56.05
43147;BME280;28752;48.266;7.402;2023-02-28T00:17:35;100080.44;;;-0.67;55.95
43147;BME280;28752;48.266;7.402;2023-02-28T00:20:00;100072.34;;;-0.60;55.71
43147;BME280;28752;48.266;7.402;2023-02-28T00:22:30;100086.22;;;-0.59;55.47
43147;BME280;28752;48.266;7.402;2023-02-28T00:24:55;100077.47;;;-0.58;55.38
43147;BME280;28752;48.266;7.402;2023-02-28T00:27:21;100076.66;;;-0.59;55.29
43147;BME280;28752;48.266;7.402;2023-02-28T00:29:46;100084.28;;;-0.54;55.08
43147;BME280;28752;48.266;7.402;2023-02-28T00:32:12;100066.41;;;-0.63;55.29
43147;BME280;28752;48.266;7.402;2023-02-28T00:34:37;100064.00;;;-0.68;55.64
43147;BME280;28752;48.266;7.402;2023-02-28T00:37:06;100066.66;;;-0.69;55.88
43147;BME280;28752;48.266;7.402;2023-02-28T00:39:34;100077.66;;;-0.63;55.56
43147;BME280;28752;48.266;7.402;2023-02-28T00:42:00;100079.47;;;-0.65;55.82
43147;BME280;28752;48.266;7.402;2023-02-28T00:44:25;100072.34;;;-0.60;55.70
43147;BME280;28752;48.266;7.402;2023-02-28T00:46:50;100069.13;;;-0.66;55.88
43147;BME280;28752;48.266;7.402;2023-02-28T00:49:17;100076.94;;;-0.66;56.11
43147;BME280;28752;48.266;7.402;2023-02-28T00:51:42;100074.75;;;-0.77;56.37
43147;BME280;28752;48.266;7.402;2023-02-28T00:54:08;100065.19;;;-0.77;56.51
43147;BME280;28752;48.266;7.402;2023-02-28T00:56:33;100073.72;;;-0.73;56.50
43147;BME280;28752;48.266;7.402;2023-02-28T00:58:58;100055.38;;;-0.92;56.50
43147;BME280;28752;48.266;7.402;2023-02-28T01:01:24;100078.13;;;-0.75;56.93
43147;BME280;28752;48.266;7.402;2023-02-28T01:03:49;100072.38;;;-0.83;57.15
43147;BME280;28752;48.266;7.402;2023-02-28T01:06:14;100077.53;;;-0.82;57.23
43147;BME280;28752;48.266;7.402;2023-02-28T01:08:40;100079.38;;;-0.85;57.52
43147;BME280;28752;48.266;7.402;2023-02-28T01:11:15;100079.97;;;-0.77;57.57
43147;BME280;28752;48.266;7.402;2023-02-28T01:13:41;100073.16;;;-0.81;57.81
43147;BME280;28752;48.266;7.402;2023-02-28T01:16:07;100073.47;;;-0.89;58.23
43147;BME280;28752;48.266;7.402;2023-02-28T01:18:33;100066.66;;;-0.93;58.70
43147;BME280;28752;48.266;7.402;2023-02-28T01:20:58;100071.81;;;-0.92;58.67
43147;BME280;28752;48.266;7.402;2023-02-28T01:23:27;100064.81;;;-0.90;59.34
43147;BME280;28752;48.266;7.402;2023-02-28T01:25:53;100068.59;;;-0.98;59.49
43147;BME280;28752;48.266;7.402;2023-02-28T01:28:18;100062.47;;;-0.97;59.71
43147;BME280;28752;48.266;7.402;2023-02-28T01:30:47;100073.97;;;-1.03;60.35
43147;BME280;28752;48.266;7.402;2023-02-28T01:33:13;100064.41;;;-1.02;60.71
43147;BME280;28752;48.266;7.402;2023-02-28T01:35:38;100073.63;;;-0.94;60.62
43147;BME280;28752;48.266;7.402;2023-02-28T01:38:04;100072.03;;;-0.98;60.97
43147;BME280;28752;48.266;7.402;2023-02-28T01:40:29;100060.91;;;-1.01;61.25
43147;BME280;28752;48.266;7.402;2023-02-28T01:42:55;100067.78;;;-1.00;61.42
43147;BME280;28752;48.266;7.402;2023-02-28T01:47:48;100073.63;;;-0.94;61.62
43147;BME280;28752;48.266;7.402;2023-02-28T01:50:19;100061.81;;;-1.02;62.37
43147;BME280;28752;48.266;7.402;2023-02-28T01:52:46;100059.09;;;-0.99;62.27
43147;BME280;28752;48.266;7.402;2023-02-28T01:55:15;100058.88;;;-0.93;62.32
43147;BME280;28752;48.266;7.402;2023-02-28T01:57:52;100061.53;;;-0.95;62.37
43147;BME280;28752;48.266;7.402;2023-02-28T02:00:22;100062.47;;;-0.97;62.69
43147;BME280;28752;48.266;7.402;2023-02-28T02:02:51;100060.81;;;-0.98;62.74
43147;BME280;28752;48.266;7.402;2023-02-28T02:05:29;100053.19;;;-1.03;62.88
43147;BME280;28752;48.266;7.402;2023-02-28T02:08:00;100060.06;;;-1.02;62.99
43147;BME280;28752;48.266;7.402;2023-02-28T02:10:32;100059.03;;;-0.98;63.04
43147;BME280;28752;48.266;7.402;2023-02-28T02:27:25;100040.25;;;-1.04;63.95
43147;BME280;28752;48.266;7.402;2023-02-28T02:38:37;100049.59;;;-1.00;64.50
43147;BME280;28752;48.266;7.402;2023-02-28T02:41:39;100045.31;;;-1.01;64.82
43147;BME280;28752;48.266;7.402;2023-02-28T02:44:13;100040.84;;;-0.98;64.67
43147;BME280;28752;48.266;7.402;2023-02-28T02:46:44;100042.59;;;-0.98;65.10
43147;BME280;28752;48.266;7.402;2023-02-28T02:49:15;100043.50;;;-0.99;65.27
43147;BME280;28752;48.266;7.402;2023-02-28T02:51:44;100038.34;;;-1.01;65.32
43147;BME280;28752;48.266;7.402;2023-02-28T02:54:15;100039.44;;;-1.07;65.59
43147;BME280;28752;48.266;7.402;2023-02-28T02:56:44;100038.53;;;-1.05;65.65
43147;BME280;28752;48.266;7.402;2023-02-28T02:59:13;100037.47;;;-1.00;65.48
43147;BME280;28752;48.266;7.402;2023-02-28T03:01:41;100033.28;;;-1.04;65.98
43147;BME280;28752;48.266;7.402;2023-02-28T03:04:13;100031.41;;;-1.00;66.10
43147;BME280;28752;48.266;7.402;2023-02-28T03:06:41;100029.91;;;-1.06;65.95
43147;BME280;28752;48.266;7.402;2023-02-28T03:09:06;100024.59;;;-1.03;65.85
43147;BME280;28752;48.266;7.402;2023-02-28T03:11:35;100033.75;;;-0.94;65.78
43147;BME280;28752;48.266;7.402;2023-02-28T03:14:13;100028.03;;;-1.02;66.16
43147;BME280;28752;48.266;7.402;2023-02-28T03:24:50;100030.78;;;-1.07;67.01
43147;BME280;28752;48.266;7.402;2023-02-28T03:27:29;100030.72;;;-1.05;66.64
43147;BME280;28752;48.266;7.402;2023-02-28T03:32:42;100028.03;;;-1.02;66.58
43147;BME280;28752;48.266;7.402;2023-02-28T03:35:17;100022.81;;;-1.02;66.51
43147;BME280;28752;48.266;7.402;2023-02-28T03:37:48;100023.53;;;-0.99;66.46
43147;BME280;28752;48.266;7.402;2023-02-28T03:40:24;100023.53;;;-0.99;66.56
43147;BME280;28752;48.266;7.402;2023-02-28T03:42:57;100031.47;;;-1.02;66.80
43147;BME280;28752;48.266;7.402;2023-02-28T03:45:27;100023.66;;;-1.02;66.80
43147;BME280;28752;48.266;7.402;2023-02-28T03:48:01;100007.56;;;-1.12;67.02
43147;BME280;28752;48.266;7.402;2023-02-28T03:50:44;100019.38;;;-1.03;66.90
43147;BME280;28752;48.266;7.402;2023-02-28T03:53:15;100015.81;;;-1.00;66.78
43147;BME280;28752;48.266;7.402;2023-02-28T03:55:48;100026.78;;;-0.92;66.94
43147;BME280;28752;48.266;7.402;2023-02-28T03:58:16;100029.09;;;-1.08;67.16
43147;BME280;28752;48.266;7.402;2023-02-28T04:00:47;100028.06;;;-1.04;67.52
43147;BME280;28752;48.266;7.402;2023-02-28T04:03:14;100028.53;;;-1.16;67.72
43147;BME280;28752;48.266;7.402;2023-02-28T04:05:54;100030.78;;;-1.07;67.56
43147;BME280;28752;48.266;7.402;2023-02-28T04:08:21;100028.84;;;-1.02;67.67
43147;BME280;28752;48.266;7.402;2023-02-28T04:10:52;100017.91;;;-1.10;67.62
43147;BME280;28752;48.266;7.402;2023-02-28T04:13:19;100033.44;;;-1.09;67.89
43147;BME280;28752;48.266;7.402;2023-02-28T04:15:45;100023.88;;;-1.08;68.15
43147;BME280;28752;48.266;7.402;2023-02-28T04:18:10;100037.88;;;-1.11;68.42
43147;BME280;28752;48.266;7.402;2023-02-28T04:20:36;100030.00;;;-1.09;68.39
43147;BME280;28752;48.266;7.402;2023-02-28T04:23:01;100028.84;;;-1.02;68.35
43147;BME280;28752;48.266;7.402;2023-02-28T04:25:26;100036.28;;;-1.15;68.62
43147;BME280;28752;48.266;7.402;2023-02-28T04:27:52;100030.97;;;-1.12;68.68
43147;BME280;28752;48.266;7.402;2023-02-28T04:30:17;100034.75;;;-1.20;68.78
43147;BME280;28752;48.266;7.402;2023-02-28T04:32:42;100022.09;;;-1.30;69.10
43147;BME280;28752;48.266;7.402;2023-02-28T04:35:08;100029.78;;;-1.27;69.09
43147;BME280;28752;48.266;7.402;2023-02-28T04:37:33;100022.31;;;-1.36;69.45
43147;BME280;28752;48.266;7.402;2023-02-28T04:40:00;100024.63;;;-1.28;69.34
43147;BME280;28752;48.266;7.402;2023-02-28T04:42:26;100020.38;;;-1.31;69.60
43147;BME280;28752;48.266;7.402;2023-02-28T04:44:51;100024.25;;;-1.41;69.97
43147;BME280;28752;48.266;7.402;2023-02-28T04:47:17;100018.78;;;-1.33;69.81
43147;BME280;28752;48.266;7.402;2023-02-28T04:49:42;100027.50;;;-1.36;69.96
43147;BME280;28752;48.266;7.402;2023-02-28T04:52:08;100030.06;;;-1.34;70.12
43147;BME280;28752;48.266;7.402;2023-02-28T04:54:35;100027.63;;;-1.39;70.30
43147;BME280;28752;48.266;7.402;2023-02-28T04:57:00;100042.22;;;-1.35;70.16
43147;BME280;28752;48.266;7.402;2023-02-28T04:59:26;100042.31;;;-1.38;70.55
43147;BME280;28752;48.266;7.402;2023-02-28T05:01:52;100038.75;;;-1.35;70.35
43147;BME280;28752;48.266;7.402;2023-02-28T05:04:17;100038.63;;;-1.56;70.86
43147;BME280;28752;48.266;7.402;2023-02-28T05:06:43;100047.91;;;-1.49;71.01
43147;BME280;28752;48.266;7.402;2023-02-28T05:09:08;100033.31;;;-1.53;71.21
43147;BME280;28752;48.266;7.402;2023-02-28T05:11:36;100044.44;;;-1.49;71.08
43147;BME280;28752;48.266;7.402;2023-02-28T05:14:09;100035.91;;;-1.53;71.35
43147;BME280;28752;48.266;7.402;2023-02-28T05:16:35;100039.03;;;-1.43;71.43
43147;BME280;28752;48.266;7.402;2023-02-28T05:19:01;100040.28;;;-1.53;71.42
43147;BME280;28752;48.266;7.402;2023-02-28T05:21:30;100039.25;;;-1.49;71.15
43147;BME280;28752;48.266;7.402;2023-02-28T05:23:58;100044.97;;;-1.65;71.56
43147;BME280;28752;48.266;7.402;2023-02-28T05:26:24;100041.84;;;-1.49;71.34
43147;BME280;28752;48.266;7.402;2023-02-28T05:28:50;100048.16;;;-1.56;71.64
43147;BME280;28752;48.266;7.402;2023-02-28T05:31:16;100037.81;;;-1.58;71.60
43147;BME280;28752;48.266;7.402;2023-02-28T05:33:41;100052.56;;;-1.58;71.71
43147;BME280;28752;48.266;7.402;2023-02-28T05:36:07;100036.97;;;-1.58;71.74
43147;BME280;28752;48.266;7.402;2023-02-28T05:38:32;100049.84;;;-1.55;71.58
43147;BME280;28752;48.266;7.402;2023-02-28T05:40:58;100044.19;;;-1.67;71.79
43147;BME280;28752;48.266;7.402;2023-02-28T05:43:23;100034.44;;;-1.60;71.87
43147;BME280;28752;48.266;7.402;2023-02-28T05:45:49;100042.53;;;-1.69;72.01
43147;BME280;28752;48.266;7.402;2023-02-28T05:48:14;100031.44;;;-1.73;72.27
43147;BME280;28752;48.266;7.402;2023-02-28T05:50:39;100044.34;;;-1.71;72.48
43147;BME280;28752;48.266;7.402;2023-02-28T05:53:05;100047.84;;;-1.72;72.33
43147;BME280;28752;48.266;7.402;2023-02-28T05:55:31;100035.28;;;-1.85;72.75
43147;BME280;28752;48.266;7.402;2023-02-28T05:57:56;100047.00;;;-1.73;72.65
43147;BME280;28752;48.266;7.402;2023-02-28T06:00:22;100044.56;;;-1.77;72.74
43147;BME280;28752;48.266;7.402;2023-02-28T06:02:48;100058.66;;;-1.85;73.07
43147;BME280;28752;48.266;7.402;2023-02-28T06:05:16;100039.81;;;-1.91;73.28
43147;BME280;28752;48.266;7.402;2023-02-28T06:07:42;100046.88;;;-1.95;73.39
43147;BME280;28752;48.266;7.402;2023-02-28T06:10:08;100052.91;;;-1.94;73.34
43147;BME280;28752;48.266;7.402;2023-02-28T06:12:34;100055.44;;;-1.93;73.34
43147;BME280;28752;48.266;7.402;2023-02-28T06:14:59;100059.13;;;-1.99;73.75
43147;BME280;28752;48.266;7.402;2023-02-28T06:17:25;100068.63;;;-1.99;73.69
43147;BME280;28752;48.266;7.402;2023-02-28T06:19:50;100056.88;;;-2.09;74.08
43147;BME280;28752;48.266;7.402;2023-02-28T06:22:15;100074.84;;;-2.03;74.12
43147;BME280;28752;48.266;7.402;2023-02-28T06:24:41;100073.09;;;-2.03;74.30
43147;BME280;28752;48.266;7.402;2023-02-28T06:27:06;100077.19;;;-1.95;74.25
43147;BME280;28752;48.266;7.402;2023-02-28T06:29:33;100081.41;;;-1.93;74.16
43147;BME280;28752;48.266;7.402;2023-02-28T06:31:59;100069.75;;;-2.06;74.26
43147;BME280;28752;48.266;7.402;2023-02-28T06:34:24;100086.00;;;-2.01;74.27
43147;BME280;28752;48.266;7.402;2023-02-28T06:36:50;100082.47;;;-1.99;74.41
43147;BME280;28752;48.266;7.402;2023-02-28T06:39:16;100088.41;;;-1.95;74.42
43147;BME280;28752;48.266;7.402;2023-02-28T06:41:41;100090.31;;;-2.00;74.46
43147;BME280;28752;48.266;7.402;2023-02-28T06:44:15;100096.59;;;-2.07;75.03
43147;BME280;28752;48.266;7.402;2023-02-28T06:46:42;100094.03;;;-2.09;74.82
43147;BME280;28752;48.266;7.402;2023-02-28T06:49:08;100099.00;;;-2.01;74.77
43147;BME280;28752;48.266;7.402;2023-02-28T06:51:34;100097.13;;;-1.98;74.88
43147;BME280;28752;48.266;7.402;2023-02-28T06:54:00;100100.66;;;-1.99;75.08
43147;BME280;28752;48.266;7.402;2023-02-28T06:56:25;100093.94;;;-2.06;75.31
43147;BME280;28752;48.266;7.402;2023-02-28T06:58:51;100101.44;;;-1.97;75.05
43147;BME280;28752;48.266;7.402;2023-02-28T07:01:18;100093.59;;;-1.95;75.08
43147;BME280;28752;48.266;7.402;2023-02-28T07:03:44;100100.44;;;-1.92;75.32
43147;BME280;28752;48.266;7.402;2023-02-28T07:06:10;100098.63;;;-1.90;75.08
43147;BME280;28752;48.266;7.402;2023-02-28T07:08:35;100096.94;;;-1.91;75.19
43147;BME280;28752;48.266;7.402;2023-02-28T07:11:05;100098.69;;;-1.92;74.94
43147;BME280;28752;48.266;7.402;2023-02-28T07:13:30;100107.03;;;-1.82;75.13
43147;BME280;28752;48.266;7.402;2023-02-28T07:15:58;100107.03;;;-1.82;74.95
43147;BME280;28752;48.266;7.402;2023-02-28T07:18:25;100109.53;;;-1.79;74.94
43147;BME280;28752;48.266;7.402;2023-02-28T07:20:50;100110.38;;;-1.79;74.80
43147;BME280;28752;48.266;7.402;2023-02-28T07:23:16;100111.00;;;-1.72;74.67
43147;BME280;28752;48.266;7.402;2023-02-28T07:25:42;100114.09;;;-1.61;74.37
43147;BME280;28752;48.266;7.402;2023-02-28T07:28:07;100126.28;;;-1.63;74.35
43147;BME280;28752;48.266;7.402;2023-02-28T07:30:33;100114.94;;;-1.60;74.33
43147;BME280;28752;48.266;7.402;2023-02-28T07:32:58;100116.44;;;-1.53;74.09
43147;BME280;28752;48.266;7.402;2023-02-28T07:35:24;100108.13;;;-1.64;74.08
43147;BME280;28752;48.266;7.402;2023-02-28T07:37:49;100102.00;;;-1.62;74.05
43147;BME280;28752;48.266;7.402;2023-02-28T07:40:15;100119.50;;;-1.41;73.81
43147;BME280;28752;48.266;7.402;2023-02-28T07:42:43;100119.34;;;-1.37;73.35
43147;BME280;28752;48.266;7.402;2023-02-28T07:45:09;100120.50;;;-1.20;72.86
43147;BME280;28752;48.266;7.402;2023-02-28T07:47:37;100114.56;;;-1.24;72.86
43147;BME280;28752;48.266;7.402;2023-02-28T07:50:03;100111.88;;;-1.21;72.87
43147;BME280;28752;48.266;7.402;2023-02-28T07:52:28;100123.41;;;-1.04;72.50
43147;BME280;28752;48.266;7.402;2023-02-28T07:54:54;100127.75;;;-1.05;72.29
43147;BME280;28752;48.266;7.402;2023-02-28T07:57:19;100105.66;;;-0.93;71.86
43147;BME280;28752;48.266;7.402;2023-02-28T07:59:44;100114.34;;;-0.93;71.88
43147;BME280;28752;48.266;7.402;2023-02-28T08:02:17;100113.00;;;-0.81;71.29
43147;BME280;28752;48.266;7.402;2023-02-28T08:04:43;100118.50;;;-0.88;71.64
43147;BME280;28752;48.266;7.402;2023-02-28T08:07:09;100145.09;;;-0.80;71.28
43147;BME280;28752;48.266;7.402;2023-02-28T08:09:38;100125.16;;;-1.05;71.66
43147;BME280;28752;48.266;7.402;2023-02-28T08:12:04;100123.03;;;-0.94;71.80
43147;BME280;28752;48.266;7.402;2023-02-28T08:14:29;100113.84;;;-1.04;72.16
43147;BME280;28752;48.266;7.402;2023-02-28T08:16:55;100121.66;;;-1.04;72.42
43147;BME280;28752;48.266;7.402;2023-02-28T08:19:20;100131.94;;;-1.01;72.35
43147;BME280;28752;48.266;7.402;2023-02-28T08:21:45;100131.78;;;-0.96;72.20
43147;BME280;28752;48.266;7.402;2023-02-28T08:24:11;100120.81;;;-0.81;71.73
43147;BME280;28752;48.266;7.402;2023-02-28T08:26:36;100136.25;;;-1.00;72.30
43147;BME280;28752;48.266;7.402;2023-02-28T08:29:01;100145.56;;;-0.94;72.40
43147;BME280;28752;48.266;7.402;2023-02-28T08:31:27;100137.72;;;-0.93;72.51
43147;BME280;28752;48.266;7.402;2023-02-28T08:33:52;100129.66;;;-0.85;73.18
43147;BME280;28752;48.266;7.402;2023-02-28T08:36:20;100132.97;;;-0.81;73.02
43147;BME280;28752;48.266;7.402;2023-02-28T08:38:46;100134.56;;;-0.77;73.38
43147;BME280;28752;48.266;7.402;2023-02-28T08:41:12;100136.25;;;-0.76;72.88
43147;BME280;28752;48.266;7.402;2023-02-28T08:43:38;100138.50;;;-0.67;73.56
43147;BME280;28752;48.266;7.402;2023-02-28T08:46:06;100133.41;;;-0.70;73.42
43147;BME280;28752;48.266;7.402;2023-02-28T08:48:33;100155.88;;;-0.67;74.44
43147;BME280;28752;48.266;7.402;2023-02-28T08:51:06;100131.75;;;-0.71;74.91
43147;BME280;28752;48.266;7.402;2023-02-28T08:53:32;100148.47;;;-0.55;75.64
43147;BME280;28752;48.266;7.402;2023-02-28T08:56:02;100151.91;;;-0.54;75.50
43147;BME280;28752;48.266;7.402;2023-02-28T08:58:30;100140.66;;;-0.55;76.74
43147;BME280;28752;48.266;7.402;2023-02-28T09:00:56;100152.22;;;-0.40;77.87
43147;BME280;28752;48.266;7.402;2023-02-28T09:03:22;100146.69;;;-0.30;78.02
43147;BME280;28752;48.266;7.402;2023-02-28T09:05:51;100147.66;;;-0.33;77.94
43147;BME280;28752;48.266;7.402;2023-02-28T09:08:17;100153.94;;;-0.39;78.56
43147;BME280;28752;48.266;7.402;2023-02-28T09:10:42;100151.09;;;-0.32;78.96
43147;BME280;28752;48.266;7.402;2023-02-28T09:13:07;100142.91;;;-0.23;78.77
43147;BME280;28752;48.266;7.402;2023-02-28T09:15:33;100161.31;;;-0.28;78.56
43147;BME280;28752;48.266;7.402;2023-02-28T09:17:58;100147.66;;;-0.33;79.33
43147;BME280;28752;48.266;7.402;2023-02-28T09:20:23;100159.78;;;-0.33;79.23
43147;BME280;28752;48.266;7.402;2023-02-28T09:22:49;100154.75;;;-0.14;80.01
43147;BME280;28752;48.266;7.402;2023-02-28T09:25:14;100151.88;;;-0.08;79.91
43147;BME280;28752;48.266;7.402;2023-02-28T09:27:39;100147.84;;;0.07;79.80
43147;BME280;28752;48.266;7.402;2023-02-28T09:30:05;100156.66;;;0.03;79.46
43147;BME280;28752;48.266;7.402;2023-02-28T09:32:31;100169.16;;;-0.06;79.02
43147;BME280;28752;48.266;7.402;2023-02-28T09:34:56;100162.44;;;0.11;79.38
43147;BME280;28752;48.266;7.402;2023-02-28T09:37:21;100167.22;;;-0.01;79.47
43147;BME280;28752;48.266;7.402;2023-02-28T09:39:47;100166.19;;;0.04;78.72
43147;BME280;28752;48.266;7.402;2023-02-28T09:42:23;100173.56;;;-0.08;77.42
43147;BME280;28752;48.266;7.402;2023-02-28T09:44:51;100159.81;;;-0.11;77.51
43147;BME280;28752;48.266;7.402;2023-02-28T09:47:36;100167.94;;;-0.19;76.79
43147;BME280;28752;48.266;7.402;2023-02-28T09:52:51;100169.56;;;0.06;75.46
43147;BME280;28752;48.266;7.402;2023-02-28T09:55:37;100170.91;;;0.16;74.60
43147;BME280;28752;48.266;7.402;2023-02-28T09:58:05;100167.72;;;0.09;74.05
43147;BME280;28752;48.266;7.402;2023-02-28T10:00:37;100168.59;;;0.08;73.85
43147;BME280;28752;48.266;7.402;2023-02-28T10:05:56;100176.22;;;0.35;73.63
43147;BME280;28752;48.266;7.402;2023-02-28T10:08:28;100171.66;;;0.40;72.73
43147;BME280;28752;48.266;7.402;2023-02-28T10:10:59;100166.19;;;0.46;72.45
43147;BME280;28752;48.266;7.402;2023-02-28T10:13:36;100164.13;;;0.55;71.51
43147;BME280;28752;48.266;7.402;2023-02-28T10:16:11;100165.63;;;0.40;71.24
43147;BME280;28752;48.266;7.402;2023-02-28T10:18:43;100161.75;;;0.48;70.87
43147;BME280;28752;48.266;7.402;2023-02-28T10:21:25;100160.41;;;0.60;70.88
43147;BME280;28752;48.266;7.402;2023-02-28T10:23:59;100154.34;;;0.60;69.91
43147;BME280;28752;48.266;7.402;2023-02-28T10:26:28;100178.00;;;0.55;69.66
43147;BME280;28752;48.266;7.402;2023-02-28T10:28:55;100146.59;;;0.58;69.15
43147;BME280;28752;48.266;7.402;2023-02-28T10:31:21;100162.88;;;0.63;68.46
43147;BME280;28752;48.266;7.402;2023-02-28T10:33:47;100172.84;;;0.74;68.22
43147;BME280;28752;48.266;7.402;2023-02-28T10:36:18;100173.19;;;0.66;68.28
43147;BME280;28752;48.266;7.402;2023-02-28T10:38:45;100168.22;;;0.60;68.17
43147;BME280;28752;48.266;7.402;2023-02-28T10:41:31;100175.84;;;0.65;68.12
43147;BME280;28752;48.266;7.402;2023-02-28T10:44:21;100172.59;;;0.80;67.69
43147;BME280;28752;48.266;7.402;2023-02-28T10:46:48;100180.28;;;0.83;67.37
43147;BME280;28752;48.266;7.402;2023-02-28T10:49:25;100173.31;;;0.84;67.42
43147;BME280;28752;48.266;7.402;2023-02-28T10:51:54;100172.25;;;0.88;67.13
43147;BME280;28752;48.266;7.402;2023-02-28T10:57:18;100174.72;;;0.91;66.81
43147;BME280;28752;48.266;7.402;2023-02-28T10:59:44;100174.88;;;0.88;66.55
43147;BME280;28752;48.266;7.402;2023-02-28T11:02:34;100182.25;;;0.99;66.21
43147;BME280;28752;48.266;7.402;2023-02-28T11:04:59;100179.81;;;1.15;66.05
43147;BME280;28752;48.266;7.402;2023-02-28T11:07:26;100177.75;;;1.02;65.92
43147;BME280;28752;48.266;7.402;2023-02-28T11:09:55;100185.69;;;0.99;66.15
43147;BME280;28752;48.266;7.402;2023-02-28T11:15:18;100174.53;;;1.16;65.87
43147;BME280;28752;48.266;7.402;2023-02-28T11:18:01;100176.09;;;1.00;65.71
43147;BME280;28752;48.266;7.402;2023-02-28T11:20:30;100175.53;;;0.93;65.76
43147;BME280;28752;48.266;7.402;2023-02-28T11:22:57;100177.69;;;1.23;65.51
43147;BME280;28752;48.266;7.402;2023-02-28T11:25:31;100171.91;;;1.16;64.89
43147;BME280;28752;48.266;7.402;2023-02-28T11:28:00;100176.50;;;1.11;64.02
43147;BME280;28752;48.266;7.402;2023-02-28T11:32:54;100177.72;;;1.42;63.92
43147;BME280;28752;48.266;7.402;2023-02-28T11:35:31;100184.28;;;1.32;63.12
43147;BME280;28752;48.266;7.402;2023-02-28T11:37:59;100186.53;;;1.39;63.06
43147;BME280;28752;48.266;7.402;2023-02-28T11:40:37;100182.97;;;1.42;62.85
43147;BME280;28752;48.266;7.402;2023-02-28T11:43:20;100191.47;;;1.46;62.85
43147;BME280;28752;48.266;7.402;2023-02-28T11:51:15;100180.22;;;1.64;62.72
43147;BME280;28752;48.266;7.402;2023-02-28T11:56:29;100185.78;;;1.75;61.72
43147;BME280;28752;48.266;7.402;2023-02-28T11:59:27;100200.25;;;1.64;61.79
43147;BME280;28752;48.266;7.402;2023-02-28T12:10:22;100183.38;;;1.52;62.37
43147;BME280;28752;48.266;7.402;2023-02-28T12:15:35;100169.13;;;1.59;61.82
43147;BME280;28752;48.266;7.402;2023-02-28T12:21:10;100172.88;;;1.72;61.24
43147;BME280;28752;48.266;7.402;2023-02-28T12:26:38;100163.13;;;1.76;61.09
43147;BME280;28752;48.266;7.402;2023-02-28T12:29:21;100164.25;;;1.89;60.68
43147;BME280;28752;48.266;7.402;2023-02-28T12:32:09;100160.44;;;1.97;60.92
43147;BME280;28752;48.266;7.402;2023-02-28T12:34:42;100157.66;;;2.00;60.47
43147;BME280;28752;48.266;7.402;2023-02-28T12:37:18;100154.66;;;1.90;60.31
43147;BME280;28752;48.266;7.402;2023-02-28T12:39:50;100167.03;;;1.67;60.91
43147;BME280;28752;48.266;7.402;2023-02-28T12:42:29;100144.22;;;1.71;60.87
43147;BME280;28752;48.266;7.402;2023-02-28T12:45:02;100131.16;;;1.90;60.54
43147;BME280;28752;48.266;7.402;2023-02-28T12:47:28;100151.69;;;1.98;59.99
43147;BME280;28752;48.266;7.402;2023-02-28T12:49:58;100143.56;;;2.04;60.30
43147;BME280;28752;48.266;7.402;2023-02-28T12:52:35;100152.13;;;1.88;60.05
43147;BME280;28752;48.266;7.402;2023-02-28T12:55:27;100127.53;;;1.92;60.26
43147;BME280;28752;48.266;7.402;2023-02-28T12:58:08;100128.09;;;1.99;60.01
43147;BME280;28752;48.266;7.402;2023-02-28T13:00:39;100149.44;;;1.90;59.35
43147;BME280;28752;48.266;7.402;2023-02-28T13:08:57;100151.91;;;1.93;59.76
43147;BME280;28752;48.266;7.402;2023-02-28T13:13:59;100140.06;;;2.03;59.95
43147;BME280;28752;48.266;7.402;2023-02-28T13:16:25;100145.06;;;2.08;59.62
43147;BME280;28752;48.266;7.402;2023-02-28T13:18:51;100141.63;;;2.07;59.32
43147;BME280;28752;48.266;7.402;2023-02-28T13:21:24;100140.66;;;2.10;58.88
43147;BME280;28752;48.266;7.402;2023-02-28T13:32:19;100141.09;;;2.18;58.66
43147;BME280;28752;48.266;7.402;2023-02-28T13:39:51;100156.19;;;2.48;58.28
43147;BME280;28752;48.266;7.402;2023-02-28T13:47:32;100152.13;;;2.42;57.80
43147;BME280;28752;48.266;7.402;2023-02-28T13:56:19;100158.66;;;2.51;57.37
43147;BME280;28752;48.266;7.402;2023-02-28T13:58:53;100156.81;;;2.53;57.08
43147;BME280;28752;48.266;7.402;2023-02-28T14:06:35;100148.97;;;2.53;57.23
43147;BME280;28752;48.266;7.402;2023-02-28T14:11:39;100155.81;;;2.56;56.41
43147;BME280;28752;48.266;7.402;2023-02-28T14:14:07;100150.56;;;2.73;56.39
43147;BME280;28752;48.266;7.402;2023-02-28T14:19:19;100158.56;;;2.70;56.26
43147;BME280;28752;48.266;7.402;2023-02-28T14:22:08;100159.25;;;2.56;56.25
43147;BME280;28752;48.266;7.402;2023-02-28T14:33:31;100149.66;;;2.74;55.82
43147;BME280;28752;48.266;7.402;2023-02-28T14:36:18;100154.81;;;2.76;55.62
43147;BME280;28752;48.266;7.402;2023-02-28T14:38:54;100152.75;;;2.65;55.85
43147;BME280;28752;48.266;7.402;2023-02-28T14:41:43;100153.97;;;2.75;55.80
43147;BME280;28752;48.266;7.402;2023-02-28T14:44:22;100154.72;;;2.77;55.79
43147;BME280;28752;48.266;7.402;2023-02-28T14:46:50;100161.78;;;2.93;55.29
43147;BME280;28752;48.266;7.402;2023-02-28T14:49:26;100172.25;;;2.93;55.25
43147;BME280;28752;48.266;7.402;2023-02-28T14:52:17;100176.13;;;2.86;55.43
43147;BME280;28752;48.266;7.402;2023-02-28T14:54:44;100158.16;;;2.78;55.29
43147;BME280;28752;48.266;7.402;2023-02-28T14:57:26;100163.03;;;2.68;55.56
43147;BME280;28752;48.266;7.402;2023-02-28T15:00:16;100161.34;;;2.67;55.54
43147;BME280;28752;48.266;7.402;2023-02-28T15:02:42;100157.22;;;2.63;55.68
43147;BME280;28752;48.266;7.402;2023-02-28T15:07:46;100157.72;;;2.87;55.49
43147;BME280;28752;48.266;7.402;2023-02-28T15:10:26;100148.03;;;2.89;55.27
43147;BME280;28752;48.266;7.402;2023-02-28T15:13:05;100149.09;;;2.85;55.11